createdAt,value
2018-05-24T00:02:06.987Z,6.05
2018-05-24T00:04:34.851Z,5.80
2018-05-24T00:07:02.714Z,7.78
2018-05-24T00:09:30.543Z,5.90
2018-05-24T00:11:58.447Z,5.75
2018-05-24T00:14:26.310Z,5.78
2018-05-24T00:16:54.072Z,5.80
2018-05-24T00:19:21.934Z,7.35
2018-05-24T00:21:49.796Z,6.28
2018-05-24T00:24:17.665Z,7.55
2018-05-24T00:26:45.527Z,7.25
2018-05-24T00:29:13.391Z,6.10
2018-05-24T00:31:41.255Z,8.05
2018-05-24T00:34:09.006Z,5.55
2018-05-24T00:36:36.771Z,5.95
2018-05-24T00:39:04.549Z,6.20
2018-05-24T00:41:32.277Z,8.10
2018-05-24T00:44:00.063Z,6.75
2018-05-24T00:46:27.812Z,7.85
2018-05-24T00:48:55.649Z,11.93
2018-05-24T00:51:23.451Z,10.57
2018-05-24T00:53:51.270Z,8.45
2018-05-24T00:56:19.038Z,7.82
2018-05-24T00:58:46.842Z,6.10
2018-05-24T01:01:14.704Z,6.35
2018-05-24T01:03:42.566Z,6.47
2018-05-24T01:06:10.430Z,6.20
2018-05-24T01:08:38.299Z,6.78
2018-05-24T01:11:06.160Z,5.80
2018-05-24T01:13:34.738Z,6.68
2018-05-24T01:16:02.562Z,5.97
2018-05-24T01:18:30.322Z,6.93
2018-05-24T01:20:58.129Z,5.25
2018-05-24T01:23:25.999Z,6.18
2018-05-24T01:25:53.860Z,6.22
2018-05-24T01:28:21.728Z,5.43
2018-05-24T01:30:49.548Z,7.32
2018-05-24T01:33:17.413Z,6.47
2018-05-24T01:35:45.214Z,5.55
2018-05-24T01:38:12.975Z,6.30
2018-05-24T01:40:40.835Z,5.97
2018-05-24T01:43:09.417Z,5.55
2018-05-24T01:45:37.280Z,5.95
2018-05-24T01:48:05.149Z,6.25
2018-05-24T01:50:32.912Z,5.80
2018-05-24T01:53:00.695Z,7.22
2018-05-24T01:55:28.427Z,6.57
2018-05-24T01:57:56.145Z,5.80
2018-05-24T02:00:23.909Z,5.80
2018-05-24T02:02:51.632Z,5.93
2018-05-24T02:05:19.378Z,6.95
2018-05-24T02:07:47.240Z,8.07
2018-05-24T02:10:15.106Z,8.52
2018-05-24T02:12:42.926Z,7.97
2018-05-24T02:15:10.736Z,6.22
2018-05-24T02:17:38.593Z,5.82
2018-05-24T02:20:06.459Z,5.93
2018-05-24T02:22:35.042Z,8.15
2018-05-24T02:25:02.908Z,7.97
2018-05-24T02:27:30.770Z,5.95
2018-05-24T02:29:58.594Z,8.38
2018-05-24T02:32:26.500Z,8.23
2018-05-24T02:34:54.463Z,6.62
2018-05-24T02:37:22.331Z,7.22
2018-05-24T02:39:50.094Z,5.87
2018-05-24T02:42:18.671Z,7.00
2018-05-24T02:44:46.535Z,7.30
2018-05-24T02:47:15.116Z,7.05
2018-05-24T02:49:42.979Z,7.28
2018-05-24T02:52:11.663Z,7.28
2018-05-24T02:54:39.491Z,6.55
2018-05-24T02:57:07.289Z,7.95
2018-05-24T02:59:35.155Z,6.82
2018-05-24T03:02:03.734Z,8.38
2018-05-24T03:04:31.598Z,7.40
2018-05-24T03:07:00.180Z,8.77
2018-05-24T03:09:27.935Z,9.02
2018-05-24T03:11:55.668Z,7.47
2018-05-24T03:14:23.455Z,6.90
2018-05-24T03:16:51.182Z,8.95
2018-05-24T03:19:18.942Z,7.28
2018-05-24T03:21:46.663Z,7.62
2018-05-24T03:24:14.382Z,7.95
2018-05-24T03:26:42.279Z,7.15
2018-05-24T03:29:10.041Z,8.15
2018-05-24T03:31:37.899Z,8.07
2018-05-24T03:34:05.770Z,6.68
2018-05-24T03:36:33.627Z,8.23
2018-05-24T03:39:01.388Z,7.75
2018-05-24T03:41:29.152Z,7.78
2018-05-24T03:43:57.016Z,7.10
2018-05-24T03:46:24.880Z,7.10
2018-05-24T03:48:52.744Z,7.95
2018-05-24T03:51:20.645Z,7.97
2018-05-24T03:53:49.247Z,6.75
2018-05-24T03:56:17.053Z,7.87
2018-05-24T03:58:44.916Z,8.35
2018-05-24T04:01:24.762Z,7.62
2018-05-24T04:03:52.528Z,7.90
2018-05-24T04:06:20.387Z,6.62
2018-05-24T04:08:48.251Z,6.68
2018-05-24T04:11:16.015Z,8.00
2018-05-24T04:13:43.879Z,6.95
2018-05-24T04:16:11.748Z,8.25
2018-05-24T04:18:39.473Z,8.05
2018-05-24T04:21:07.378Z,7.12
2018-05-24T04:23:35.236Z,7.15
2018-05-24T04:26:02.987Z,8.00
2018-05-24T04:28:30.737Z,6.97
2018-05-24T04:30:58.490Z,7.05
2018-05-24T04:33:26.212Z,7.78
2018-05-24T04:35:54.487Z,7.00
2018-05-24T04:38:22.208Z,7.53
2018-05-24T04:40:50.007Z,7.82
2018-05-24T04:43:18.556Z,7.30
2018-05-24T04:45:46.418Z,8.10
2018-05-24T04:48:14.283Z,8.25
2018-05-24T04:50:42.049Z,7.03
2018-05-24T04:53:09.911Z,7.90
2018-05-24T04:55:37.774Z,7.12
2018-05-24T04:58:06.459Z,7.60
2018-05-24T05:00:34.220Z,7.53
2018-05-24T05:03:02.087Z,8.60
2018-05-24T05:05:29.948Z,7.80
2018-05-24T05:07:57.811Z,7.12
2018-05-24T05:10:25.674Z,6.95
2018-05-24T05:12:53.506Z,6.87
2018-05-24T05:15:21.405Z,10.45
2018-05-24T05:17:49.223Z,6.25
2018-05-24T05:20:17.131Z,6.50
2018-05-24T05:22:44.996Z,8.35
2018-05-24T05:25:12.866Z,7.10
2018-05-24T05:27:40.726Z,8.98
2018-05-24T05:30:08.588Z,7.10
2018-05-24T05:32:36.406Z,7.35
2018-05-24T05:35:04.229Z,7.18
2018-05-24T05:37:31.984Z,7.47
2018-05-24T05:39:59.842Z,5.75
2018-05-24T05:42:27.705Z,6.75
2018-05-24T05:44:55.652Z,8.52
2018-05-24T05:47:23.390Z,7.00
2018-05-24T05:49:51.195Z,7.90
2018-05-24T05:52:18.938Z,7.87
2018-05-24T05:54:46.675Z,6.82
2018-05-24T05:57:14.451Z,6.18
2018-05-24T05:59:42.183Z,5.95
2018-05-24T06:02:09.962Z,7.25
2018-05-24T06:04:37.766Z,7.62
2018-05-24T06:07:05.551Z,7.75
2018-05-24T06:09:34.169Z,7.45
2018-05-24T06:12:01.984Z,8.20
2018-05-24T06:14:29.837Z,6.53
2018-05-24T06:16:57.702Z,6.70
2018-05-24T06:19:25.523Z,5.40
2018-05-24T06:21:53.294Z,5.37
2018-05-24T06:24:21.192Z,5.70
2018-05-24T06:26:48.922Z,6.72
2018-05-24T06:29:16.691Z,7.70
2018-05-24T06:31:44.421Z,7.65
2018-05-24T06:34:12.207Z,8.25
2018-05-24T06:36:39.983Z,6.43
2018-05-24T06:39:07.704Z,7.62
2018-05-24T06:41:35.630Z,7.35
2018-05-24T06:44:03.459Z,7.03
2018-05-24T06:46:31.407Z,6.65
2018-05-24T06:48:59.219Z,6.70
2018-05-24T06:51:27.083Z,7.05
2018-05-24T06:53:54.961Z,6.78
2018-05-24T06:56:22.811Z,6.78
2018-05-24T06:58:50.677Z,6.25
2018-05-24T07:01:18.459Z,6.97
2018-05-24T07:03:46.971Z,12.40
2018-05-24T07:06:14.708Z,6.93
2018-05-24T07:08:42.504Z,6.62
2018-05-24T07:11:10.246Z,6.68
2018-05-24T07:13:38.030Z,8.57
2018-05-24T07:16:05.766Z,6.78
2018-05-24T07:18:33.546Z,6.07
2018-05-24T07:21:01.354Z,5.93
2018-05-24T07:23:29.104Z,6.03
2018-05-24T07:25:56.847Z,6.20
2018-05-24T07:28:24.623Z,7.45
2018-05-24T07:30:52.346Z,5.82
2018-05-24T07:33:20.076Z,5.75
2018-05-24T07:35:48.590Z,6.43
2018-05-24T07:38:16.318Z,5.80
2018-05-24T07:40:44.858Z,4.97
2018-05-24T07:43:12.578Z,8.25
2018-05-24T07:45:40.331Z,5.82
2018-05-24T07:48:08.867Z,5.10
2018-05-24T07:50:36.614Z,5.18
2018-05-24T07:53:04.503Z,6.12
2018-05-24T07:55:32.371Z,5.45
2018-05-24T07:58:00.134Z,4.50
2018-05-24T08:00:27.864Z,5.73
2018-05-24T08:02:55.655Z,7.65
2018-05-24T08:05:23.408Z,4.47
2018-05-24T08:07:51.133Z,7.47
2018-05-24T08:10:18.897Z,4.40
2018-05-24T08:12:46.665Z,4.60
2018-05-24T08:15:14.421Z,4.50
2018-05-24T08:17:42.182Z,8.73
2018-05-24T08:20:09.945Z,5.18
2018-05-24T08:22:37.703Z,3.92
2018-05-24T08:25:05.620Z,4.25
2018-05-24T08:27:33.378Z,5.05
2018-05-24T08:30:01.150Z,8.32
2018-05-24T08:32:28.870Z,5.60
2018-05-24T08:34:56.599Z,3.45
2018-05-24T08:37:24.378Z,4.43
2018-05-24T08:39:52.107Z,5.47
2018-05-24T08:42:20.620Z,4.00
2018-05-24T08:44:48.338Z,6.83
2018-05-24T08:47:16.942Z,5.23
2018-05-24T08:49:44.624Z,4.27
2018-05-24T08:52:12.375Z,3.83
2018-05-24T08:54:40.101Z,4.70
2018-05-24T08:57:08.658Z,3.27
2018-05-24T08:59:36.377Z,4.30
2018-05-24T09:02:04.113Z,4.70
2018-05-24T09:04:31.905Z,4.87
2018-05-24T09:06:59.648Z,4.07
2018-05-24T09:09:27.398Z,4.60
2018-05-24T09:11:55.131Z,4.53
2018-05-24T09:14:22.889Z,3.65
2018-05-24T09:16:50.623Z,4.47
2018-05-24T09:19:18.380Z,5.60
2018-05-24T09:21:46.121Z,5.10
2018-05-24T09:24:13.896Z,5.00
2018-05-24T09:26:41.658Z,3.10
2018-05-24T09:29:09.402Z,3.55
2018-05-24T09:31:37.167Z,5.70
2018-05-24T09:34:04.907Z,4.55
2018-05-24T09:36:33.430Z,3.30
2018-05-24T09:39:01.150Z,3.35
2018-05-24T09:41:29.667Z,3.58
2018-05-24T09:43:57.464Z,3.47
2018-05-24T09:46:25.218Z,3.83
2018-05-24T09:48:52.987Z,4.35
2018-05-24T09:51:20.735Z,3.75
2018-05-24T09:53:48.573Z,4.03
2018-05-24T09:56:16.375Z,4.50
2018-05-24T09:58:44.242Z,3.30
2018-05-24T10:01:12.207Z,4.50
2018-05-24T10:03:40.070Z,3.47
2018-05-24T10:06:07.788Z,4.43
2018-05-24T10:08:35.543Z,4.25
2018-05-24T10:11:03.262Z,5.82
2018-05-24T10:13:31.009Z,3.80
2018-05-24T10:15:58.726Z,5.68
2018-05-24T10:18:26.477Z,3.65
2018-05-24T10:20:54.204Z,3.35
2018-05-24T10:23:22.000Z,5.75
2018-05-24T10:25:49.731Z,4.00
2018-05-24T10:28:17.449Z,3.90
2018-05-24T10:30:45.246Z,5.22
2018-05-24T10:33:12.971Z,3.30
2018-05-24T10:35:40.726Z,3.80
2018-05-24T10:38:08.472Z,4.65
2018-05-24T10:40:36.223Z,4.60
2018-05-24T10:43:04.727Z,4.82
2018-05-24T10:45:32.635Z,3.67
2018-05-24T10:48:00.347Z,6.62
2018-05-24T10:50:28.092Z,5.43
2018-05-24T10:52:56.578Z,3.55
2018-05-24T10:55:24.301Z,8.35
2018-05-24T10:57:52.055Z,3.47
2018-05-24T11:00:19.774Z,3.75
2018-05-24T11:02:47.531Z,3.28
2018-05-24T11:05:15.289Z,3.62
2018-05-24T11:07:43.050Z,3.67
2018-05-24T11:10:10.773Z,3.30
2018-05-24T11:12:38.584Z,4.12
2018-05-24T11:15:06.339Z,2.70
2018-05-24T11:17:34.089Z,4.47
2018-05-24T11:20:01.850Z,3.20
2018-05-24T11:22:29.735Z,4.18
2018-05-24T11:24:57.482Z,3.92
2018-05-24T11:27:25.199Z,5.50
2018-05-24T11:29:52.948Z,2.60
2018-05-24T11:32:20.674Z,3.10
2018-05-24T11:34:48.426Z,4.40
2018-05-24T11:37:16.222Z,2.83
2018-05-24T11:39:43.957Z,2.33
2018-05-24T11:42:11.683Z,4.60
2018-05-24T11:44:39.435Z,3.20
2018-05-24T11:47:07.162Z,3.65
2018-05-24T11:49:34.956Z,3.15
2018-05-24T11:52:02.777Z,4.10
2018-05-24T11:54:30.471Z,3.58
2018-05-24T11:56:58.219Z,4.03
2018-05-24T11:59:25.938Z,2.90
2018-05-24T12:01:54.551Z,3.10
2018-05-24T12:04:22.989Z,4.93
2018-05-24T12:06:51.503Z,3.35
2018-05-24T12:09:19.213Z,3.12
2018-05-24T12:11:47.061Z,3.85
2018-05-24T12:14:14.777Z,3.75
2018-05-24T12:16:42.555Z,4.35
2018-05-24T12:19:10.280Z,3.53
2018-05-24T12:21:38.786Z,3.80
2018-05-24T12:24:06.553Z,3.22
2018-05-24T12:26:34.311Z,3.15
2018-05-24T12:29:02.167Z,2.85
2018-05-24T12:31:30.628Z,4.55
2018-05-24T12:33:59.150Z,5.10
2018-05-24T12:36:27.630Z,2.70
2018-05-24T12:38:55.374Z,2.83
2018-05-24T12:41:23.101Z,4.93
2018-05-24T12:43:51.675Z,3.40
2018-05-24T12:46:20.161Z,3.05
2018-05-24T12:48:48.645Z,2.90
2018-05-24T12:51:17.246Z,5.32
2018-05-24T12:53:45.063Z,2.78
2018-05-24T12:56:12.825Z,2.97
2018-05-24T12:58:40.538Z,4.15
2018-05-24T13:01:08.288Z,4.72
2018-05-24T13:03:36.004Z,3.40
2018-05-24T13:06:03.774Z,4.78
2018-05-24T13:08:31.525Z,3.40
2018-05-24T13:10:59.274Z,3.37
2018-05-24T13:13:26.992Z,3.28
2018-05-24T13:15:54.774Z,3.92
2018-05-24T13:18:22.492Z,9.23
2018-05-24T13:20:50.981Z,3.67
2018-05-24T13:23:19.526Z,2.60
2018-05-24T13:25:47.391Z,5.70
2018-05-24T13:28:15.142Z,3.10
2018-05-24T13:30:42.912Z,7.10
2018-05-24T13:33:10.669Z,3.35
2018-05-24T13:35:38.437Z,3.75
2018-05-24T13:38:06.204Z,5.28
2018-05-24T13:40:34.126Z,2.78
2018-05-24T13:43:01.899Z,3.00
2018-05-24T13:45:29.643Z,3.05
2018-05-24T13:47:57.427Z,3.70
2018-05-24T13:50:25.167Z,2.92
2018-05-24T13:52:52.978Z,4.12
2018-05-24T13:55:20.839Z,4.37
2018-05-24T13:57:48.705Z,3.12
2018-05-24T14:00:16.567Z,4.00
2018-05-24T14:02:44.432Z,2.20
2018-05-24T14:05:12.300Z,3.05
2018-05-24T14:07:40.059Z,3.20
2018-05-24T14:10:07.813Z,3.50
2018-05-24T14:12:35.592Z,3.62
2018-05-24T14:15:03.396Z,3.15
2018-05-24T14:17:31.159Z,4.50
2018-05-24T14:19:58.949Z,5.37
2018-05-24T14:22:26.667Z,4.25
2018-05-24T14:24:55.146Z,6.75
2018-05-24T14:27:23.654Z,2.35
2018-05-24T14:29:51.382Z,2.60
2018-05-24T14:32:19.938Z,2.72
2018-05-24T14:34:47.673Z,3.20
2018-05-24T14:37:15.418Z,3.00
2018-05-24T14:39:43.148Z,3.78
2018-05-24T14:42:11.793Z,5.50
2018-05-24T14:44:39.657Z,5.90
2018-05-24T14:47:07.429Z,5.20
2018-05-24T14:49:35.244Z,5.75
2018-05-24T14:52:02.962Z,4.75
2018-05-24T14:54:31.527Z,5.05
2018-05-24T14:56:59.243Z,5.90
2018-05-24T14:59:26.989Z,7.12
2018-05-24T15:01:54.715Z,4.75
2018-05-24T15:04:22.472Z,3.22
2018-05-24T15:06:50.194Z,2.90
2018-05-24T15:09:17.959Z,4.10
2018-05-24T15:11:45.724Z,3.62
2018-05-24T15:14:13.496Z,5.18
2018-05-24T15:16:41.243Z,2.42
2018-05-24T15:19:09.144Z,4.03
2018-05-24T15:21:36.871Z,3.22
2018-05-24T15:24:04.630Z,6.50
2018-05-24T15:26:32.430Z,3.67
2018-05-24T15:29:00.187Z,4.90
2018-05-24T15:31:27.944Z,2.62
2018-05-24T15:33:56.454Z,6.43
2018-05-24T15:36:25.117Z,6.00
2018-05-24T15:38:52.844Z,5.28
2018-05-24T15:41:20.589Z,2.90
2018-05-24T15:43:49.046Z,4.07
2018-05-24T15:46:17.694Z,3.33
2018-05-24T15:48:45.522Z,3.22
2018-05-24T15:51:13.323Z,6.10
2018-05-24T15:53:41.081Z,4.95
2018-05-24T15:56:09.049Z,5.12
2018-05-24T15:58:36.915Z,3.10
2018-05-24T16:01:04.780Z,3.10
2018-05-24T16:03:32.641Z,4.80
2018-05-24T16:06:00.610Z,2.70
2018-05-24T16:08:29.277Z,4.20
2018-05-24T16:10:58.002Z,4.62
2018-05-24T16:13:25.942Z,4.65
2018-05-24T16:15:53.669Z,3.95
2018-05-24T16:18:21.459Z,3.50
2018-05-24T16:20:49.240Z,2.42
2018-05-24T16:23:17.051Z,3.03
2018-05-24T16:25:44.801Z,3.90
2018-05-24T16:28:12.824Z,3.80
2018-05-24T16:30:41.432Z,2.50
2018-05-24T16:33:09.477Z,3.15
2018-05-24T16:38:17.007Z,5.28
2018-05-24T16:40:45.775Z,4.47
2018-05-24T16:43:15.675Z,4.43
2018-05-24T16:45:43.433Z,3.58
2018-05-24T16:48:12.591Z,4.32
2018-05-24T16:50:40.382Z,4.35
2018-05-24T16:53:09.425Z,3.42
2018-05-24T16:55:39.922Z,3.95
2018-05-24T16:58:07.926Z,3.72
2018-05-24T17:00:35.778Z,3.72
2018-05-24T17:03:04.312Z,5.75
2018-05-24T17:05:32.044Z,3.40
2018-05-24T17:08:00.035Z,5.10
2018-05-24T17:10:30.780Z,5.60
2018-05-24T17:12:58.642Z,3.12
2018-05-24T17:15:26.419Z,3.90
2018-05-24T17:17:54.167Z,3.47
2018-05-24T17:20:21.907Z,3.35
2018-05-24T17:22:49.670Z,9.20
2018-05-24T17:25:17.392Z,5.95
2018-05-24T17:27:45.213Z,2.85
2018-05-24T17:30:12.965Z,5.60
2018-05-24T17:32:40.691Z,4.62
2018-05-24T17:35:08.462Z,2.62
2018-05-24T17:37:36.178Z,4.32
2018-05-24T17:40:03.950Z,5.07
2018-05-24T17:42:31.745Z,5.80
2018-05-24T17:44:59.487Z,3.22
2018-05-24T17:47:27.207Z,4.05
2018-05-24T17:49:54.972Z,3.08
2018-05-24T17:52:22.702Z,4.57
2018-05-24T17:54:50.474Z,2.92
2018-05-24T17:57:18.202Z,4.62
2018-05-24T17:59:45.954Z,4.20
2018-05-24T18:02:13.703Z,2.55
2018-05-24T18:04:42.214Z,2.92
2018-05-24T18:07:10.018Z,3.70
2018-05-24T18:09:37.776Z,3.72
2018-05-24T19:48:10.621Z,4.32
2018-05-24T19:50:38.394Z,6.50
2018-05-24T19:53:06.323Z,5.07
2018-05-24T19:55:35.851Z,9.00
2018-05-24T19:58:04.550Z,5.80
2018-05-24T20:00:33.080Z,6.05
2018-05-24T20:03:00.884Z,5.32
2018-05-24T20:05:28.655Z,7.93
2018-05-24T20:08:00.225Z,6.47
2018-05-24T20:10:28.046Z,4.72
2018-05-24T20:12:56.756Z,9.10
2018-05-24T20:15:24.764Z,4.47
2018-05-24T20:17:52.528Z,5.40
2018-05-24T20:20:20.296Z,6.50
2018-05-24T20:22:48.161Z,7.93
2018-05-24T20:25:15.977Z,6.97
2018-05-24T20:31:04.411Z,7.22
2018-05-24T20:33:32.979Z,9.85
2018-05-24T20:36:01.544Z,5.40
2018-05-24T20:38:30.044Z,6.00
2018-05-24T20:40:59.998Z,5.97
2018-05-24T20:46:49.619Z,7.32
2018-05-24T20:49:17.346Z,5.07
2018-05-24T20:57:58.976Z,5.25
2018-05-24T21:00:26.754Z,5.53
2018-05-24T21:02:55.533Z,6.15
2018-05-24T21:05:23.287Z,5.30
2018-05-24T21:27:51.477Z,5.75
2018-05-24T21:30:20.246Z,6.93
2018-05-24T21:32:47.964Z,6.45
2018-05-24T21:35:15.781Z,4.95
2018-05-24T21:37:43.543Z,5.70
2018-05-24T21:40:11.262Z,6.82
2018-05-24T21:42:39.024Z,9.13
2018-05-24T21:48:28.853Z,6.45
2018-05-24T21:54:18.098Z,4.87
2018-05-24T22:03:22.137Z,7.32
2018-05-24T22:05:49.873Z,6.97
2018-05-24T22:08:17.704Z,5.97
2018-05-24T22:14:06.514Z,6.00
